Time;durP1;ratioP1;P1;durP2;ratioP2;P2;SDS_P1;SDS_P2;PMS_P1;PMS_P2;Temp;Humidity;BMP_temperature;BMP_pressure;BME280_temperature;BME280_humidity;BME280_pressure;Samples;Min_cycle;Max_cycle;Signal;HPM_P1;HPM_P2
2024/04/19 00:01:08;;;;;;;5.60;1.00;;;9.10;97.90;;;;;;5512104;26;20467;-70
2024/04/19 00:03:34;;;;;;;7.60;1.30;;;9.10;97.80;;;;;;5515842;26;20300;-70
2024/04/19 00:06:00;;;;;;;6.45;1.23;;;9.10;97.90;;;;;;5514094;25;20013;-70
2024/04/19 00:08:25;;;;;;;10.07;1.25;;;9.10;97.80;;;;;;5515510;26;20001;-69
2024/04/19 00:10:53;;;;;;;7.88;1.08;;;9.10;97.60;;;;;;5513328;26;20016;-69
2024/04/19 00:13:19;;;;;;;4.95;1.23;;;9.00;97.50;;;;;;5509750;25;20490;-70
2024/04/19 00:15:45;;;;;;;14.82;1.63;;;9.00;97.50;;;;;;5515323;26;20062;-70
2024/04/19 00:18:10;;;;;;;8.40;1.55;;;9.00;97.40;;;;;;5514414;26;20016;-69
2024/04/19 00:20:38;;;;;;;7.70;1.20;;;9.00;97.30;;;;;;5479915;26;20526;-70
2024/04/19 00:23:03;;;;;;;8.00;1.35;;;9.00;97.30;;;;;;5512536;25;19994;-70
2024/04/19 00:25:29;;;;;;;6.20;1.00;;;9.00;97.10;;;;;;5513013;25;20066;-71
2024/04/19 00:27:54;;;;;;;2.22;1.02;;;9.00;97.10;;;;;;5513750;25;20033;-71
2024/04/19 00:30:20;;;;;;;9.02;1.42;;;9.10;97.20;;;;;;5483029;26;20659;-70
2024/04/19 00:32:46;;;;;;;4.15;1.33;;;9.10;97.20;;;;;;5477931;26;20086;-70
2024/04/19 00:35:11;;;;;;;6.32;1.33;;;9.10;97.20;;;;;;5507204;26;20001;-70
2024/04/19 00:37:37;;;;;;;4.95;1.00;;;9.00;97.10;;;;;;5510466;26;20012;-70
2024/04/19 00:40:03;;;;;;;4.03;1.10;;;9.00;97.20;;;;;;5512958;26;20006;-71
2024/04/19 00:42:28;;;;;;;5.28;1.25;;;8.90;97.10;;;;;;5513871;26;20717;-70
2024/04/19 00:44:54;;;;;;;8.27;1.23;;;9.00;97.10;;;;;;5505687;26;20489;-70
2024/04/19 00:47:19;;;;;;;4.53;1.20;;;8.90;97.00;;;;;;5515186;25;20462;-70
2024/04/19 00:49:45;;;;;;;12.90;1.73;;;8.90;97.00;;;;;;5516416;25;20051;-69
2024/04/19 00:52:12;;;;;;;7.97;1.08;;;8.90;97.00;;;;;;5508792;26;19993;-70
2024/04/19 00:54:39;;;;;;;3.75;0.80;;;8.90;97.00;;;;;;5507090;25;19997;-73
2024/04/19 00:57:06;;;;;;;4.03;1.30;;;8.80;97.00;;;;;;5510776;25;20046;-70
2024/04/19 00:59:32;;;;;;;11.65;1.17;;;8.80;97.10;;;;;;5508160;26;20454;-70
2024/04/19 01:01:58;;;;;;;9.63;1.30;;;8.80;97.20;;;;;;5507132;26;20047;-69
2024/04/19 01:04:24;;;;;;;5.07;1.35;;;8.80;97.20;;;;;;5509985;26;20625;-70
2024/04/19 01:06:49;;;;;;;15.20;1.58;;;8.80;97.20;;;;;;5505613;26;20367;-70
2024/04/19 01:09:15;;;;;;;9.05;1.30;;;8.80;97.30;;;;;;5479261;26;19997;-70
2024/04/19 01:11:41;;;;;;;2.88;1.27;;;8.80;97.30;;;;;;5505371;26;20013;-70
2024/04/19 01:14:07;;;;;;;7.78;1.50;;;8.80;97.40;;;;;;5508812;26;20629;-69
2024/04/19 01:16:35;;;;;;;8.57;1.33;;;8.80;97.30;;;;;;5511876;26;20002;-70
2024/04/19 01:19:05;;;;;;;5.10;1.35;;;8.70;97.30;;;;;;5508954;26;20009;-70
2024/04/19 01:21:31;;;;;;;10.43;1.60;;;8.80;97.40;;;;;;5478625;26;20106;-69
2024/04/19 01:24:27;;;;;;;8.80;1.65;;;8.80;97.40;;;;;;5514516;26;20458;-70
2024/04/19 01:26:53;;;;;;;5.85;1.48;;;8.80;97.50;;;;;;5502189;25;20015;-70
2024/04/19 01:29:18;;;;;;;4.43;1.15;;;8.80;97.50;;;;;;5512349;26;19998;-69
2024/04/19 01:31:44;;;;;;;7.75;1.27;;;8.80;97.50;;;;;;5510504;25;20010;-69
2024/04/19 01:34:09;;;;;;;6.32;0.93;;;8.80;97.60;;;;;;5512415;25;19997;-69
2024/04/19 01:36:35;;;;;;;5.63;1.02;;;8.80;97.60;;;;;;5475021;26;20030;-70
2024/04/19 01:39:01;;;;;;;6.47;1.65;;;8.80;97.50;;;;;;5506023;26;20497;-70
2024/04/19 01:41:27;;;;;;;11.65;1.20;;;8.70;97.60;;;;;;5516098;25;20005;-70
2024/04/19 01:43:52;;;;;;;9.30;1.73;;;8.70;97.60;;;;;;5513058;26;20450;-69
2024/04/19 01:46:18;;;;;;;5.60;1.40;;;8.80;97.60;;;;;;5506797;26;20033;-70
2024/04/19 01:48:43;;;;;;;7.78;1.50;;;8.80;97.80;;;;;;5515362;26;19993;-69
2024/04/19 01:51:09;;;;;;;11.30;2.00;;;8.70;97.80;;;;;;5503891;25;20008;-69
2024/04/19 01:53:35;;;;;;;6.25;1.88;;;8.70;97.90;;;;;;5482982;26;20004;-70
2024/04/19 01:56:00;;;;;;;8.77;1.60;;;8.80;98.10;;;;;;5475247;26;20002;-70
2024/04/19 01:58:26;;;;;;;13.90;2.30;;;8.70;98.00;;;;;;5512888;26;20604;-69
2024/04/19 02:00:51;;;;;;;10.50;1.50;;;8.80;98.10;;;;;;5483907;26;20005;-70
2024/04/19 02:03:17;;;;;;;2.47;1.15;;;8.80;98.00;;;;;;5507310;26;20047;-69
2024/04/19 02:05:43;;;;;;;8.60;1.73;;;8.70;97.40;;;;;;5507645;25;19993;-70
2024/04/19 02:08:08;;;;;;;4.40;1.88;;;8.60;96.50;;;;;;5513849;25;19993;-71
2024/04/19 02:10:35;;;;;;;3.65;1.10;;;8.60;96.60;;;;;;5506844;25;20489;-71
2024/04/19 02:13:01;;;;;;;9.18;1.80;;;8.60;96.60;;;;;;5513350;25;20338;-70
2024/04/19 02:15:27;;;;;;;4.57;1.42;;;8.60;96.90;;;;;;5505880;25;20070;-69
2024/04/19 02:17:52;;;;;;;5.00;1.58;;;8.50;97.10;;;;;;5506689;25;20073;-70
2024/04/19 02:20:18;;;;;;;1.40;1.30;;;8.50;97.50;;;;;;5512356;25;20073;-70
2024/04/19 02:22:43;;;;;;;3.63;1.85;;;8.50;97.50;;;;;;5504135;25;20450;-70
2024/04/19 02:25:09;;;;;;;4.80;2.03;;;8.30;97.90;;;;;;5502211;25;20002;-70
2024/04/19 02:33:03;;;;;;;5.30;1.95;;;8.00;99.30;;;;;;5501008;25;20008;-69
2024/04/19 02:35:29;;;;;;;6.20;2.42;;;8.10;99.80;;;;;;5504111;25;20025;-70
2024/04/19 02:37:55;;;;;;;9.60;2.38;;;8.00;99.90;;;;;;5505575;26;19993;-70
2024/04/19 02:40:20;;;;;;;5.03;2.35;;;8.00;99.90;;;;;;5501921;25;19993;-70
2024/04/19 02:42:46;;;;;;;7.30;2.00;;;7.90;99.90;;;;;;5510339;26;19998;-70
2024/04/19 02:45:11;;;;;;;8.00;2.03;;;7.80;99.90;;;;;;5505002;25;20069;-70
2024/04/19 02:47:37;;;;;;;4.60;2.22;;;7.70;99.90;;;;;;5512815;25;20009;-70
2024/04/19 02:50:03;;;;;;;4.70;2.47;;;7.70;99.90;;;;;;5511381;25;20013;-70
2024/04/19 02:52:28;;;;;;;7.15;1.95;;;7.60;99.90;;;;;;5502272;25;20004;-69
2024/04/19 02:54:54;;;;;;;5.70;2.55;;;7.60;99.90;;;;;;5510366;25;20501;-70
2024/04/19 02:57:19;;;;;;;8.05;2.22;;;7.60;99.90;;;;;;5500536;25;20001;-69
2024/04/19 02:59:45;;;;;;;4.80;2.60;;;7.60;99.90;;;;;;5509450;25;19990;-70
2024/04/19 03:02:10;;;;;;;9.45;2.50;;;7.50;99.90;;;;;;5506999;26;20467;-70
2024/04/19 03:04:38;;;;;;;8.65;2.78;;;7.40;99.90;;;;;;5499188;25;20042;-70
2024/04/19 03:07:03;;;;;;;4.47;2.38;;;7.40;99.90;;;;;;5497076;26;20002;-70
2024/04/19 03:09:29;;;;;;;6.43;3.08;;;7.40;99.90;;;;;;5500877;26;20010;-69
2024/04/19 03:11:55;;;;;;;4.10;2.50;;;7.40;99.90;;;;;;5496662;26;21023;-70
2024/04/19 03:14:20;;;;;;;4.78;2.72;;;7.30;99.90;;;;;;5505590;26;20009;-70
2024/04/19 03:16:46;;;;;;;4.85;2.70;;;7.40;99.90;;;;;;5507285;25;20005;-70
2024/04/19 03:19:11;;;;;;;14.73;3.50;;;7.30;99.90;;;;;;5471978;26;19999;-69
2024/04/19 03:21:37;;;;;;;5.72;3.38;;;7.30;99.90;;;;;;5509811;26;20074;-69
2024/04/19 03:24:03;;;;;;;7.18;3.35;;;7.20;99.90;;;;;;5507739;26;20469;-71
2024/04/19 03:26:29;;;;;;;9.77;3.50;;;7.20;99.90;;;;;;5503960;26;20776;-69
2024/04/19 03:28:54;;;;;;;8.05;3.92;;;7.20;99.90;;;;;;5512762;26;20001;-70
2024/04/19 03:31:20;;;;;;;7.25;3.80;;;7.20;99.90;;;;;;5514627;25;20006;-70
2024/04/19 03:33:45;;;;;;;5.32;3.80;;;7.20;99.90;;;;;;5508032;26;20011;-70
2024/04/19 03:36:11;;;;;;;9.85;3.30;;;7.20;99.90;;;;;;5480637;26;20009;-70
2024/04/19 03:38:36;;;;;;;7.60;4.43;;;7.20;99.90;;;;;;5482884;26;20002;-70
2024/04/19 03:41:02;;;;;;;9.25;4.28;;;7.10;99.90;;;;;;5515924;26;20070;-69
2024/04/19 03:43:32;;;;;;;8.00;4.15;;;7.00;99.90;;;;;;5516608;26;20002;-70
2024/04/19 03:46:02;;;;;;;7.68;4.60;;;7.00;99.90;;;;;;5463615;26;19997;-69
2024/04/19 03:48:27;;;;;;;7.70;4.38;;;7.00;99.90;;;;;;5484448;26;20020;-70
2024/04/19 03:50:53;;;;;;;8.38;4.45;;;6.90;99.90;;;;;;5499702;25;20572;-69
2024/04/19 03:53:18;;;;;;;8.07;4.60;;;6.90;99.90;;;;;;5475456;25;19998;-70
2024/04/19 03:55:45;;;;;;;7.03;4.78;;;6.80;99.90;;;;;;5515500;25;20472;-69
2024/04/19 03:58:11;;;;;;;6.97;4.93;;;6.90;99.90;;;;;;5510354;25;19993;-69
2024/04/19 04:00:40;;;;;;;7.70;4.68;;;6.80;99.90;;;;;;5508466;25;20008;-70
2024/04/19 04:03:09;;;;;;;7.25;5.57;;;6.80;99.90;;;;;;5508008;25;20005;-70
2024/04/19 04:05:34;;;;;;;8.98;5.00;;;6.70;99.90;;;;;;5508995;25;20327;-70
2024/04/19 04:08:00;;;;;;;8.15;5.38;;;6.70;99.90;;;;;;5512088;26;20005;-70
2024/04/19 04:10:25;;;;;;;8.65;5.30;;;6.60;99.90;;;;;;5516817;25;19998;-69
2024/04/19 04:12:51;;;;;;;7.18;5.60;;;6.60;99.90;;;;;;5504825;25;20583;-70
2024/04/19 04:15:16;;;;;;;8.40;4.93;;;6.60;99.90;;;;;;5509657;25;20001;-66
2024/04/19 04:17:42;;;;;;;8.05;5.03;;;6.60;99.90;;;;;;5481536;26;20009;-66
2024/04/19 04:20:08;;;;;;;11.55;5.70;;;6.60;99.90;;;;;;5479152;26;20534;-67
2024/04/19 04:22:33;;;;;;;7.93;5.18;;;6.70;99.90;;;;;;5511424;25;20015;-67
2024/04/19 04:24:59;;;;;;;8.13;5.25;;;6.70;99.90;;;;;;5513973;25;20091;-66
2024/04/19 04:27:24;;;;;;;7.18;5.00;;;6.70;99.90;;;;;;5509425;25;19997;-66
2024/04/19 04:29:50;;;;;;;9.82;3.92;;;6.70;99.90;;;;;;5507449;25;20070;-67
2024/04/19 04:32:16;;;;;;;8.65;4.35;;;6.60;99.90;;;;;;5508636;26;20331;-66
2024/04/19 04:34:41;;;;;;;6.60;3.90;;;6.70;99.90;;;;;;5512004;25;20006;-66
2024/04/19 04:37:07;;;;;;;5.97;4.15;;;6.70;99.90;;;;;;5514132;25;20053;-66
2024/04/19 04:39:33;;;;;;;6.55;4.25;;;6.70;99.90;;;;;;5509637;25;20106;-66
2024/04/19 04:41:59;;;;;;;4.50;2.95;;;6.50;99.90;;;;;;5507389;25;20403;-66
2024/04/19 04:44:32;;;;;;;4.53;3.25;;;6.60;99.90;;;;;;5474011;26;20001;-67
2024/04/19 04:46:58;;;;;;;3.15;2.60;;;6.50;99.90;;;;;;5508785;25;20017;-66
2024/04/19 04:49:24;;;;;;;2.58;2.28;;;6.60;99.90;;;;;;5510127;25;20005;-67
2024/04/19 04:51:49;;;;;;;4.32;2.72;;;6.60;99.90;;;;;;5498002;25;20104;-67
2024/04/19 04:54:15;;;;;;;4.03;2.63;;;6.50;99.90;;;;;;5499325;26;20020;-67
2024/04/19 04:56:40;;;;;;;2.78;2.20;;;6.50;99.90;;;;;;5506687;25;21662;-66
2024/04/19 04:59:06;;;;;;;4.35;2.90;;;6.60;99.90;;;;;;5501391;25;20086;-66
2024/04/19 05:01:32;;;;;;;3.50;2.63;;;6.50;99.90;;;;;;5509076;25;19993;-66
2024/04/19 05:03:57;;;;;;;2.88;2.40;;;6.50;99.90;;;;;;5501607;25;20390;-66
2024/04/19 05:06:23;;;;;;;6.65;3.17;;;6.50;99.90;;;;;;5512531;25;19994;-67
2024/04/19 05:08:48;;;;;;;4.07;2.45;;;6.50;99.90;;;;;;5507421;25;20001;-66
2024/04/19 05:11:14;;;;;;;3.42;2.30;;;6.60;99.90;;;;;;5514485;25;20459;-66
2024/04/19 05:13:39;;;;;;;4.85;2.35;;;6.50;99.90;;;;;;5508873;26;19997;-67
2024/04/19 05:16:05;;;;;;;4.05;2.55;;;6.50;99.90;;;;;;5504796;25;20736;-66
2024/04/19 05:18:31;;;;;;;3.95;2.78;;;6.50;99.90;;;;;;5514859;26;20012;-66
2024/04/19 05:20:56;;;;;;;4.15;2.33;;;6.50;99.90;;;;;;5507290;26;20005;-66
2024/04/19 05:23:22;;;;;;;3.72;2.58;;;6.50;99.90;;;;;;5471481;25;20025;-66
2024/04/19 05:25:50;;;;;;;6.38;2.45;;;6.50;99.90;;;;;;5510407;25;20013;-66
2024/04/19 05:28:16;;;;;;;5.22;2.97;;;6.50;99.90;;;;;;5499562;25;20016;-66
2024/04/19 05:30:42;;;;;;;3.72;2.65;;;6.40;99.90;;;;;;5499756;25;19998;-66
2024/04/19 05:33:08;;;;;;;3.85;2.28;;;6.40;99.90;;;;;;5503060;26;20045;-66
2024/04/19 05:35:33;;;;;;;3.20;2.45;;;6.40;99.90;;;;;;5481317;26;20042;-66
2024/04/19 05:37:59;;;;;;;4.70;2.67;;;6.40;99.90;;;;;;5503628;25;20466;-66
2024/04/19 05:40:25;;;;;;;4.43;2.05;;;6.40;99.90;;;;;;5511172;25;20037;-66
2024/04/19 05:42:52;;;;;;;4.70;2.70;;;6.40;99.90;;;;;;5501930;25;20457;-66
2024/04/19 05:45:18;;;;;;;4.30;2.08;;;6.40;99.90;;;;;;5505867;25;19998;-66
2024/04/19 05:47:44;;;;;;;2.90;2.20;;;6.40;99.90;;;;;;5477770;25;20009;-66
2024/04/19 05:50:10;;;;;;;3.67;2.40;;;6.40;99.90;;;;;;5512153;25;19989;-66
2024/04/19 05:52:35;;;;;;;3.35;2.13;;;6.50;99.90;;;;;;5503777;25;19990;-66
2024/04/19 05:55:01;;;;;;;2.63;2.05;;;6.50;99.90;;;;;;5504272;25;19993;-66
2024/04/19 05:57:26;;;;;;;3.92;2.20;;;6.40;99.90;;;;;;5476348;26;20491;-66
2024/04/19 05:59:54;;;;;;;3.63;2.42;;;6.50;99.90;;;;;;5499057;25;20001;-66
2024/04/19 06:02:20;;;;;;;3.47;2.38;;;6.50;99.90;;;;;;5506901;26;19997;-66
2024/04/19 06:04:45;;;;;;;5.13;2.58;;;6.50;99.90;;;;;;5511702;26;19993;-66
2024/04/19 06:07:11;;;;;;;2.47;2.03;;;6.50;99.90;;;;;;5513204;26;20060;-66
2024/04/19 06:09:37;;;;;;;2.55;1.60;;;6.50;99.90;;;;;;5503111;25;20082;-66
2024/04/19 06:12:02;;;;;;;3.70;1.95;;;6.40;99.90;;;;;;5508268;25;20001;-66
2024/04/19 06:14:29;;;;;;;2.97;2.33;;;6.40;99.90;;;;;;5512435;25;19998;-66
2024/04/19 06:16:54;;;;;;;1.48;1.20;;;6.50;99.90;;;;;;5512192;26;20077;-66
2024/04/19 06:19:20;;;;;;;2.45;1.80;;;6.50;99.90;;;;;;5514427;26;20002;-66
2024/04/19 06:21:45;;;;;;;4.95;1.80;;;6.50;99.90;;;;;;5507378;26;19998;-66
2024/04/19 06:24:11;;;;;;;1.55;1.38;;;6.50;99.90;;;;;;5464073;25;20002;-66
2024/04/19 06:26:38;;;;;;;1.48;1.38;;;6.50;99.90;;;;;;5511937;26;19993;-66
2024/04/19 06:29:04;;;;;;;1.98;1.40;;;6.60;99.90;;;;;;5512729;26;20021;-66
2024/04/19 06:31:29;;;;;;;2.10;1.70;;;6.60;99.90;;;;;;5509662;25;19993;-66
2024/04/19 06:33:55;;;;;;;1.60;1.20;;;6.60;99.90;;;;;;5513646;26;20001;-65
2024/04/19 06:36:21;;;;;;;1.83;1.33;;;6.50;99.90;;;;;;5504470;26;20009;-65
2024/04/19 06:38:46;;;;;;;2.88;1.60;;;6.60;99.90;;;;;;5506228;26;20005;-66
2024/04/19 06:41:12;;;;;;;1.70;1.30;;;6.60;99.90;;;;;;5508089;25;20346;-65
2024/04/19 06:43:37;;;;;;;2.22;1.67;;;6.70;99.90;;;;;;5498608;26;20009;-66
2024/04/19 06:46:03;;;;;;;1.77;1.42;;;6.60;99.90;;;;;;5503066;25;20740;-66
2024/04/19 06:48:28;;;;;;;1.40;1.10;;;6.60;99.90;;;;;;5501898;25;20100;-65
2024/04/19 06:50:54;;;;;;;1.48;1.05;;;6.60;99.90;;;;;;5498484;25;20014;-66
2024/04/19 06:53:20;;;;;;;3.83;1.38;;;6.70;99.90;;;;;;5468230;26;20019;-66
2024/04/19 06:55:48;;;;;;;1.80;1.42;;;6.70;99.90;;;;;;5502110;25;19998;-66
2024/04/19 06:58:13;;;;;;;;;;;6.70;99.90;;;;;;5463960;25;20005;-66
2024/04/19 07:00:39;;;;;;;1.80;1.60;;;6.70;99.90;;;;;;5500697;25;20561;-65
2024/04/19 07:03:05;;;;;;;1.48;1.10;;;6.70;99.90;;;;;;5496412;25;20494;-65
2024/04/19 07:05:30;;;;;;;0.85;0.82;;;6.80;99.90;;;;;;5507517;25;20001;-66
2024/04/19 07:07:56;;;;;;;2.30;1.50;;;6.80;99.90;;;;;;5509158;26;20020;-66
2024/04/19 07:10:22;;;;;;;1.83;1.20;;;6.80;99.90;;;;;;5492975;25;19998;-65
2024/04/19 07:12:51;;;;;;;2.58;1.00;;;6.90;99.90;;;;;;5504790;25;20021;-65
2024/04/19 07:15:17;;;;;;;1.88;0.93;;;6.90;99.90;;;;;;5507549;25;20328;-65
2024/04/19 07:17:43;;;;;;;1.08;0.90;;;6.90;99.90;;;;;;5508293;25;20001;-65
2024/04/19 07:20:09;;;;;;;1.67;1.40;;;6.90;99.90;;;;;;5503546;25;20551;-65
2024/04/19 07:22:35;;;;;;;2.00;1.20;;;6.90;99.90;;;;;;5511611;25;20004;-65
2024/04/19 07:25:02;;;;;;;1.23;1.08;;;7.00;99.90;;;;;;5501961;25;19994;-65
2024/04/19 07:27:28;;;;;;;1.10;0.80;;;7.00;99.90;;;;;;5510350;25;20065;-65
2024/04/19 07:29:54;;;;;;;1.45;0.70;;;7.00;99.90;;;;;;5507432;25;20010;-65
2024/04/19 07:32:20;;;;;;;0.95;0.80;;;7.00;99.90;;;;;;5506754;25;20034;-65
2024/04/19 07:34:46;;;;;;;0.82;0.82;;;7.10;99.90;;;;;;5500045;25;19993;-66
2024/04/19 07:37:12;;;;;;;0.70;0.70;;;7.10;99.90;;;;;;5479328;26;20008;-65
2024/04/19 07:39:37;;;;;;;1.10;0.80;;;7.10;99.90;;;;;;5510843;25;19990;-65
2024/04/19 07:42:03;;;;;;;0.73;0.65;;;7.10;99.90;;;;;;5511381;25;19993;-66
2024/04/19 07:44:29;;;;;;;1.05;0.95;;;7.10;99.90;;;;;;5477247;25;20002;-66
2024/04/19 07:46:54;;;;;;;1.88;0.73;;;7.20;99.90;;;;;;5504187;25;20008;-66
2024/04/19 07:49:20;;;;;;;0.63;0.60;;;7.20;99.90;;;;;;5506927;25;19997;-65
2024/04/19 07:51:46;;;;;;;1.60;0.90;;;7.20;99.90;;;;;;5510114;25;20551;-66
2024/04/19 07:54:11;;;;;;;1.55;0.90;;;7.30;99.90;;;;;;5506937;26;20002;-65
2024/04/19 07:56:41;;;;;;;1.33;0.60;;;7.40;99.90;;;;;;5507759;25;19989;-65
2024/04/19 07:59:07;;;;;;;0.70;0.70;;;7.40;99.90;;;;;;5502930;25;20569;-65
2024/04/19 08:01:33;;;;;;;1.13;0.82;;;7.40;99.90;;;;;;5503881;25;20085;-66
2024/04/19 08:03:59;;;;;;;1.00;0.80;;;7.40;99.90;;;;;;5510753;25;20005;-65
2024/04/19 08:06:24;;;;;;;0.88;0.68;;;7.40;99.90;;;;;;5503317;25;19998;-65
2024/04/19 08:08:51;;;;;;;1.10;1.00;;;7.50;99.90;;;;;;5476847;25;20082;-65
2024/04/19 08:11:16;;;;;;;1.45;1.00;;;7.50;99.90;;;;;;5508197;25;20013;-66
2024/04/19 08:13:42;;;;;;;0.82;0.80;;;7.60;99.90;;;;;;5507012;25;20354;-66
2024/04/19 08:16:07;;;;;;;1.17;1.08;;;7.60;99.90;;;;;;5510843;25;20665;-66
2024/04/19 08:18:34;;;;;;;1.90;1.02;;;7.70;99.90;;;;;;5481870;26;19998;-66
2024/04/19 08:20:59;;;;;;;2.75;1.10;;;7.80;99.90;;;;;;5476528;26;20017;-66
2024/04/19 08:23:25;;;;;;;2.20;1.40;;;7.80;99.90;;;;;;5507112;25;20001;-65
2024/04/19 08:25:51;;;;;;;1.83;1.02;;;7.90;99.90;;;;;;5507732;25;20001;-66
2024/04/19 08:28:17;;;;;;;2.97;1.20;;;8.00;99.90;;;;;;5500309;25;20016;-66
2024/04/19 08:30:43;;;;;;;1.05;0.95;;;8.20;99.90;;;;;;5511765;25;20689;-66
2024/04/19 08:33:08;;;;;;;1.30;1.10;;;8.30;99.90;;;;;;5506684;25;20462;-66
2024/04/19 08:35:34;;;;;;;1.88;1.20;;;8.40;99.90;;;;;;5502347;25;20006;-66
2024/04/19 08:38:00;;;;;;;1.58;1.20;;;8.50;99.90;;;;;;5500860;25;20001;-66
2024/04/19 08:40:28;;;;;;;2.72;1.05;;;8.50;99.90;;;;;;5511532;25;20088;-65
2024/04/19 08:42:54;;;;;;;1.23;1.13;;;8.60;99.90;;;;;;5511033;25;20001;-65
2024/04/19 08:45:21;;;;;;;1.58;1.25;;;8.60;99.90;;;;;;5505797;25;20446;-66
2024/04/19 08:47:51;;;;;;;3.42;1.10;;;8.70;99.90;;;;;;5506941;25;20118;-66
2024/04/19 08:50:17;;;;;;;2.20;1.48;;;8.70;99.90;;;;;;5504933;25;20001;-66
2024/04/19 08:52:45;;;;;;;4.60;1.70;;;8.80;99.90;;;;;;5506819;25;20020;-66
2024/04/19 08:55:12;;;;;;;3.25;1.95;;;8.80;99.90;;;;;;5508409;25;20001;-66
2024/04/19 08:57:41;;;;;;;7.97;2.08;;;8.90;99.90;;;;;;5510478;25;20008;-65
2024/04/19 09:00:08;;;;;;;4.57;2.25;;;8.90;99.90;;;;;;5513778;26;19997;-66
2024/04/19 09:02:34;;;;;;;6.10;2.40;;;9.00;99.90;;;;;;5511560;25;19997;-65
2024/04/19 09:05:01;;;;;;;5.90;2.33;;;9.00;99.90;;;;;;5495915;25;20473;-66
2024/04/19 09:07:29;;;;;;;4.53;2.13;;;9.00;99.90;;;;;;5511915;26;19990;-66
2024/04/19 09:09:56;;;;;;;2.60;1.63;;;9.00;99.90;;;;;;5482546;26;20020;-66
2024/04/19 09:12:21;;;;;;;4.15;1.58;;;9.10;99.90;;;;;;5503935;25;20041;-66
2024/04/19 09:14:50;;;;;;;4.80;1.77;;;9.10;99.90;;;;;;5497918;25;20342;-66
2024/04/19 09:17:16;;;;;;;4.35;1.70;;;9.20;99.90;;;;;;5495027;25;20021;-66
2024/04/19 09:19:42;;;;;;;4.93;2.55;;;9.30;99.90;;;;;;5504967;25;20390;-66
2024/04/19 09:22:08;;;;;;;2.40;1.73;;;9.40;99.90;;;;;;5506828;25;20078;-66
2024/04/19 09:24:34;;;;;;;3.13;1.90;;;9.50;99.90;;;;;;5506813;25;20682;-66
2024/04/19 09:27:04;;;;;;;3.67;2.28;;;9.60;99.90;;;;;;5504893;26;19994;-66
2024/04/19 09:29:30;;;;;;;3.17;2.20;;;9.80;99.90;;;;;;5479860;26;20470;-66
2024/04/19 09:31:59;;;;;;;6.57;2.08;;;10.00;99.90;;;;;;5505298;25;20078;-66
2024/04/19 09:34:25;;;;;;;4.00;1.98;;;10.10;99.90;;;;;;5507566;26;20082;-66
2024/04/19 09:36:51;;;;;;;3.05;2.10;;;10.10;99.90;;;;;;5482220;26;20028;-66
2024/04/19 09:39:17;;;;;;;1.88;1.58;;;10.20;99.90;;;;;;5502470;25;20060;-66
2024/04/19 09:41:46;;;;;;;1.83;1.58;;;10.20;99.90;;;;;;5506999;25;20675;-66
2024/04/19 09:44:15;;;;;;;7.65;1.98;;;10.30;99.90;;;;;;5509487;26;20081;-66
2024/04/19 09:46:48;;;;;;;5.72;1.70;;;10.50;99.90;;;;;;5474298;26;19995;-66
2024/04/19 09:49:20;;;;;;;4.50;1.60;;;10.60;99.90;;;;;;5459981;26;20401;-66
2024/04/19 09:51:48;;;;;;;6.40;2.13;;;10.70;99.90;;;;;;5481818;25;20468;-66
2024/04/19 09:54:19;;;;;;;4.70;1.50;;;10.80;99.90;;;;;;5509982;25;20030;-66
2024/04/19 09:57:03;;;;;;;5.18;1.50;;;10.80;99.90;;;;;;5513151;25;20013;-66
2024/04/19 09:59:34;;;;;;;4.07;1.25;;;10.70;99.90;;;;;;5478156;25;20483;-66
2024/04/19 10:02:00;;;;;;;2.10;1.45;;;10.70;99.90;;;;;;5510175;25;20552;-66
2024/04/19 10:04:26;;;;;;;8.77;1.90;;;10.60;99.90;;;;;;5510585;26;20536;-66
2024/04/19 10:06:52;;;;;;;8.68;1.63;;;10.50;99.90;;;;;;5502110;25;20811;-66
2024/04/19 10:09:25;;;;;;;6.75;1.40;;;10.50;99.90;;;;;;5505406;26;20008;-66
2024/04/19 10:11:53;;;;;;;8.82;1.60;;;10.30;99.90;;;;;;5508061;26;19994;-66
2024/04/19 10:14:20;;;;;;;;;;;10.30;99.90;;;;;;5514278;26;20013;-66
2024/04/19 10:16:47;;;;;;;2.03;1.40;;;10.20;99.90;;;;;;5512663;26;20053;-66
2024/04/19 10:19:15;;;;;;;4.17;1.20;;;10.20;99.90;;;;;;5478805;26;20015;-66
2024/04/19 10:21:42;;;;;;;4.63;1.45;;;10.00;99.90;;;;;;5474907;26;20004;-66
2024/04/19 10:24:17;;;;;;;2.92;1.38;;;10.00;99.90;;;;;;5500158;25;20033;-66
2024/04/19 10:26:46;;;;;;;3.53;1.45;;;10.00;99.90;;;;;;5469765;26;20377;-66
2024/04/19 10:29:20;;;;;;;3.03;1.20;;;10.00;99.90;;;;;;5514588;26;20007;-66
2024/04/19 10:31:53;;;;;;;5.57;1.20;;;10.00;99.90;;;;;;5505901;25;19990;-65
2024/04/19 10:34:19;;;;;;;5.50;1.67;;;10.10;99.90;;;;;;5505782;25;20008;-66
2024/04/19 10:36:46;;;;;;;4.30;1.60;;;10.20;99.90;;;;;;5511303;25;20008;-66
2024/04/19 10:39:12;;;;;;;2.80;1.48;;;10.40;99.90;;;;;;5508658;26;19998;-66
2024/04/19 10:42:04;;;;;;;4.45;1.65;;;10.60;99.90;;;;;;5508547;26;20002;-65
2024/04/19 10:44:31;;;;;;;3.97;1.63;;;10.90;99.90;;;;;;5494873;25;20002;-66
2024/04/19 10:46:57;;;;;;;7.25;1.88;;;11.20;99.90;;;;;;5497711;25;20537;-66
2024/04/19 10:49:23;;;;;;;3.45;1.85;;;11.40;99.90;;;;;;5511031;26;20002;-66
2024/04/19 10:51:50;;;;;;;4.38;1.75;;;11.60;99.90;;;;;;5504381;25;20647;-66
2024/04/19 10:54:16;;;;;;;4.57;1.40;;;11.80;99.90;;;;;;5499108;25;20038;-66
2024/04/19 10:56:41;;;;;;;2.88;1.00;;;12.00;99.90;;;;;;5480713;26;19997;-66
2024/04/19 10:59:07;;;;;;;6.70;1.13;;;12.10;99.90;;;;;;5504230;25;20085;-66
2024/04/19 11:01:33;;;;;;;6.07;1.23;;;12.10;99.90;;;;;;5498644;25;19990;-66
2024/04/19 11:04:00;;;;;;;5.25;1.10;;;12.00;99.90;;;;;;5511247;25;19990;-65
2024/04/19 11:06:27;;;;;;;11.52;1.33;;;11.70;99.90;;;;;;5505376;25;20017;-66
2024/04/19 11:08:53;;;;;;;6.47;1.27;;;11.60;99.90;;;;;;5498001;25;20004;-66
2024/04/19 11:11:19;;;;;;;8.00;1.77;;;11.70;99.90;;;;;;5494642;25;20412;-66
2024/04/19 11:13:45;;;;;;;6.53;1.23;;;11.60;99.90;;;;;;5506512;25;20029;-66
2024/04/19 11:16:10;;;;;;;3.13;1.35;;;11.60;99.90;;;;;;5501237;26;20008;-66
2024/04/19 11:18:36;;;;;;;8.10;1.13;;;11.50;99.90;;;;;;5512757;25;19994;-66
2024/04/19 11:21:02;;;;;;;7.53;1.42;;;11.40;99.90;;;;;;5497809;25;20349;-66
2024/04/19 11:23:28;;;;;;;1.48;0.82;;;11.40;99.90;;;;;;5503280;25;20033;-66
2024/04/19 11:25:57;;;;;;;4.32;1.08;;;11.30;99.90;;;;;;5500939;25;20752;-66
2024/04/19 11:28:23;;;;;;;4.65;1.08;;;11.40;99.90;;;;;;5505381;25;19997;-66
2024/04/19 11:30:49;;;;;;;3.55;1.10;;;11.40;99.90;;;;;;5473740;25;20560;-66
2024/04/19 11:33:14;;;;;;;5.22;0.93;;;11.50;99.90;;;;;;5507577;25;20015;-66
2024/04/19 11:35:41;;;;;;;3.17;0.95;;;11.70;99.90;;;;;;5507635;25;20102;-66
2024/04/19 11:38:10;;;;;;;7.65;1.13;;;11.80;99.90;;;;;;5511533;25;20013;-66
2024/04/19 11:40:36;;;;;;;2.05;0.90;;;12.00;99.90;;;;;;5474249;26;20073;-66
2024/04/19 11:43:02;;;;;;;3.03;1.02;;;12.20;99.90;;;;;;5509580;25;20013;-66
2024/04/19 11:45:28;;;;;;;8.10;1.40;;;12.40;99.90;;;;;;5506501;25;20074;-66
2024/04/19 11:47:57;;;;;;;5.82;1.45;;;12.60;99.90;;;;;;5507132;25;20000;-66
2024/04/19 11:50:25;;;;;;;4.10;1.30;;;12.80;99.90;;;;;;5497282;25;20001;-66
2024/04/19 11:52:51;;;;;;;5.18;1.48;;;12.90;99.90;;;;;;5481353;26;20020;-66
2024/04/19 11:55:18;;;;;;;9.20;1.95;;;12.90;99.90;;;;;;5468130;26;20075;-66
2024/04/19 11:57:44;;;;;;;2.95;1.05;;;13.10;99.90;;;;;;5469851;26;20017;-66
2024/04/19 12:00:10;;;;;;;7.07;1.23;;;13.40;99.90;;;;;;5466251;26;19995;-66
2024/04/19 12:02:36;;;;;;;7.03;1.38;;;13.60;99.90;;;;;;5472310;26;20015;-66
2024/04/19 12:05:01;;;;;;;5.60;1.20;;;13.60;99.90;;;;;;5474711;26;19993;-66
2024/04/19 12:07:27;;;;;;;6.45;1.17;;;13.50;99.90;;;;;;5469445;26;19995;-66
2024/04/19 12:09:53;;;;;;;5.63;1.02;;;13.30;99.90;;;;;;5476060;26;20002;-66
2024/04/19 12:12:20;;;;;;;5.03;1.10;;;13.20;99.90;;;;;;5473340;26;20567;-66
2024/04/19 12:14:48;;;;;;;7.00;1.00;;;13.00;99.90;;;;;;5470576;26;19993;-66
2024/04/19 12:17:14;;;;;;;3.67;1.30;;;12.80;99.80;;;;;;5475934;26;20067;-66
2024/04/19 12:19:40;;;;;;;2.72;1.08;;;12.50;99.60;;;;;;5503649;25;20019;-66
2024/04/19 12:22:06;;;;;;;5.20;1.23;;;12.50;99.90;;;;;;5506987;25;20071;-66
2024/04/19 12:24:36;;;;;;;1.35;0.60;;;12.00;99.90;;;;;;5509412;26;19997;-66
2024/04/19 12:27:04;;;;;;;1.58;0.50;;;11.40;99.90;;;;;;5501628;25;20727;-65
2024/04/19 12:29:30;;;;;;;0.60;0.30;;;11.20;99.90;;;;;;5510316;25;20019;-66
2024/04/19 12:31:56;;;;;;;0.22;0.22;;;11.00;99.90;;;;;;5510698;25;20472;-66
2024/04/19 12:34:21;;;;;;;1.00;0.30;;;10.80;99.90;;;;;;5506206;25;20822;-66
2024/04/19 12:36:48;;;;;;;2.67;0.38;;;10.60;99.90;;;;;;5504441;25;20042;-66
2024/04/19 12:39:14;;;;;;;2.40;0.70;;;10.40;99.90;;;;;;5508354;25;20104;-66
2024/04/19 12:41:39;;;;;;;2.50;0.60;;;10.50;99.90;;;;;;5510335;26;20009;-66
2024/04/19 12:44:05;;;;;;;0.75;0.40;;;10.60;99.90;;;;;;5513220;25;20415;-66
2024/04/19 12:46:31;;;;;;;0.73;0.25;;;10.70;99.90;;;;;;5505167;25;20521;-65
2024/04/19 12:49:04;;;;;;;0.85;0.40;;;10.90;99.90;;;;;;5510647;25;20020;-66
2024/04/19 12:51:31;;;;;;;2.40;0.40;;;10.90;99.90;;;;;;5506343;25;20010;-66
2024/04/19 12:53:57;;;;;;;5.85;0.60;;;10.90;99.90;;;;;;5516132;25;20008;-65
2024/04/19 12:56:23;;;;;;;3.88;1.05;;;11.20;99.90;;;;;;5516591;26;19998;-66